createdAt,value
2022-09-15T00:00:09.556Z,17.10
2022-09-15T00:03:51.830Z,17.10
2022-09-15T00:07:34.016Z,17.10
2022-09-15T00:11:18.898Z,17.00
2022-09-15T00:15:00.761Z,17.00
2022-09-15T00:18:43.554Z,17.00
2022-09-15T00:22:26.283Z,17.00
2022-09-15T00:26:12.661Z,17.00
2022-09-15T00:29:54.447Z,17.00
2022-09-15T00:33:36.805Z,16.90
2022-09-15T00:37:18.576Z,17.00
2022-09-15T00:41:01.373Z,16.90
2022-09-15T00:44:50.975Z,16.90
2022-09-15T00:48:34.110Z,16.90
2022-09-15T00:52:52.913Z,17.00
2022-09-15T00:56:36.589Z,17.00
2022-09-15T01:00:20.822Z,16.90
2022-09-15T01:04:03.060Z,17.00
2022-09-15T01:07:56.514Z,16.90
2022-09-15T01:11:39.520Z,17.00
2022-09-15T01:15:24.934Z,17.00
2022-09-15T01:20:04.035Z,17.00
2022-09-15T01:24:05.468Z,16.90
2022-09-15T01:27:56.715Z,16.90
2022-09-15T01:32:06.639Z,16.90
2022-09-15T01:35:51.552Z,16.90
2022-09-15T01:39:39.706Z,16.90
2022-09-15T01:43:24.551Z,16.90
2022-09-15T01:47:09.927Z,16.80
2022-09-15T01:50:55.968Z,16.80
2022-09-15T01:54:44.311Z,16.80
2022-09-15T01:58:26.335Z,16.80
2022-09-15T02:02:14.618Z,16.80
2022-09-15T02:06:08.906Z,16.70
2022-09-15T02:10:02.827Z,16.70
2022-09-15T02:14:14.432Z,16.60
2022-09-15T02:17:58.077Z,16.60
2022-09-15T02:22:08.075Z,16.60
2022-09-15T02:25:55.247Z,16.50
2022-09-15T02:29:38.802Z,16.50
2022-09-15T02:33:24.195Z,16.40
2022-09-15T02:37:06.688Z,16.40
2022-09-15T02:40:49.144Z,16.30
2022-09-15T02:44:31.821Z,16.30
2022-09-15T02:48:13.829Z,16.20
2022-09-15T02:51:55.797Z,16.20
2022-09-15T02:55:37.807Z,16.20
2022-09-15T02:59:19.600Z,16.20
2022-09-15T03:03:01.419Z,16.10
2022-09-15T03:06:43.640Z,16.10
2022-09-15T03:10:25.766Z,16.10
2022-09-15T03:14:08.285Z,16.10
2022-09-15T03:17:50.555Z,16.10
2022-09-15T03:21:32.460Z,16.00
2022-09-15T03:25:14.639Z,16.00
2022-09-15T03:28:57.499Z,16.00
2022-09-15T03:32:39.358Z,16.00
2022-09-15T03:36:21.195Z,15.90
2022-09-15T03:40:03.925Z,15.90
2022-09-15T03:43:45.923Z,15.90
2022-09-15T03:47:27.725Z,15.80
2022-09-15T03:51:10.646Z,15.80
2022-09-15T03:54:52.501Z,15.80
2022-09-15T03:58:34.400Z,15.70
2022-09-15T04:02:16.322Z,15.70
2022-09-15T04:05:58.260Z,15.60
2022-09-15T04:09:40.043Z,15.50
2022-09-15T04:13:26.694Z,15.50
2022-09-15T04:17:11.624Z,15.40
2022-09-15T04:20:53.537Z,15.40
2022-09-15T04:24:35.680Z,15.40
2022-09-15T04:28:17.533Z,15.40
2022-09-15T04:31:59.311Z,15.30
2022-09-15T04:35:41.140Z,15.30
2022-09-15T04:39:22.977Z,15.30
2022-09-15T04:43:04.905Z,15.40
2022-09-15T04:46:46.711Z,15.40
2022-09-15T04:50:28.655Z,15.40
2022-09-15T04:54:10.846Z,15.40
2022-09-15T04:57:52.763Z,15.40
2022-09-15T05:01:35.761Z,15.40
2022-09-15T05:05:17.833Z,15.40
2022-09-15T05:08:59.845Z,15.40
2022-09-15T05:12:41.883Z,15.30
2022-09-15T05:16:27.022Z,15.40
2022-09-15T05:20:09.294Z,15.30
2022-09-15T05:23:52.273Z,15.30
2022-09-15T05:27:34.467Z,15.30
2022-09-15T05:31:25.436Z,15.30
2022-09-15T05:35:07.421Z,15.30
2022-09-15T05:38:49.319Z,15.40
2022-09-15T05:42:32.084Z,15.40
2022-09-15T05:46:14.987Z,15.40
2022-09-15T05:49:56.804Z,15.50
2022-09-15T05:53:39.151Z,15.50
2022-09-15T05:57:21.035Z,15.50
2022-09-15T06:01:08.611Z,15.50
2022-09-15T06:04:50.408Z,15.50
2022-09-15T06:08:34.593Z,15.50
2022-09-15T06:12:18.006Z,15.60
2022-09-15T06:16:09.120Z,15.60
2022-09-15T06:19:50.914Z,15.60
2022-09-15T06:23:32.753Z,15.60
2022-09-15T06:27:14.523Z,15.60
2022-09-15T06:30:56.520Z,15.70
2022-09-15T06:34:38.336Z,15.70
2022-09-15T06:38:20.271Z,15.70
2022-09-15T06:42:03.708Z,15.70
2022-09-15T06:45:47.351Z,15.70
2022-09-15T06:49:29.180Z,15.80
2022-09-15T06:53:11.200Z,15.80
2022-09-15T06:56:53.219Z,15.90
2022-09-15T07:00:35.001Z,15.90
2022-09-15T07:04:16.831Z,15.90
2022-09-15T07:07:58.910Z,15.90
2022-09-15T07:11:40.996Z,16.00
2022-09-15T07:15:25.031Z,16.00
2022-09-15T07:19:06.863Z,16.00
2022-09-15T07:22:48.759Z,16.00
2022-09-15T07:26:31.196Z,16.10
2022-09-15T07:30:13.861Z,16.10
2022-09-15T07:33:56.085Z,16.10
2022-09-15T07:37:37.911Z,16.10
2022-09-15T07:41:28.282Z,16.20
2022-09-15T07:45:11.608Z,16.30
2022-09-15T07:48:57.504Z,16.40
2022-09-15T07:52:39.353Z,16.40
2022-09-15T07:56:22.490Z,16.50
2022-09-15T08:00:05.528Z,16.50
2022-09-15T08:03:49.611Z,16.60
2022-09-15T08:07:31.447Z,16.70
2022-09-15T08:11:19.420Z,16.80
2022-09-15T08:15:01.408Z,16.90
2022-09-15T08:18:44.532Z,17.00
2022-09-15T08:22:26.696Z,17.10
2022-09-15T08:26:13.778Z,17.30
2022-09-15T08:29:56.499Z,17.40
2022-09-15T08:33:41.977Z,17.50
2022-09-15T08:37:27.424Z,17.50
2022-09-15T08:41:20.202Z,17.60
2022-09-15T08:45:20.529Z,17.60
2022-09-15T08:49:50.124Z,17.60
2022-09-15T08:53:37.884Z,17.70
2022-09-15T08:57:23.544Z,17.80
2022-09-15T09:01:11.531Z,17.90
2022-09-15T09:05:15.403Z,18.00
2022-09-15T09:09:24.582Z,18.10
2022-09-15T09:13:33.404Z,18.20
2022-09-15T09:17:17.835Z,18.40
2022-09-15T09:21:14.421Z,18.60
2022-09-15T09:24:59.350Z,18.60
2022-09-15T09:29:01.059Z,18.80
2022-09-15T09:33:04.461Z,19.00
2022-09-15T09:36:52.565Z,19.00
2022-09-15T09:40:37.432Z,19.00
2022-09-15T09:44:19.779Z,18.90
2022-09-15T09:48:09.258Z,18.90
2022-09-15T09:51:56.160Z,18.90
2022-09-15T09:55:41.420Z,18.80
2022-09-15T09:59:38.373Z,18.80
2022-09-15T10:03:20.136Z,18.80
2022-09-15T10:07:01.970Z,19.20
2022-09-15T10:10:54.496Z,19.70
2022-09-15T10:14:41.900Z,19.90
2022-09-15T10:18:37.878Z,20.10
2022-09-15T10:22:29.146Z,20.10
2022-09-15T10:26:26.010Z,20.10
2022-09-15T10:30:13.920Z,20.00
2022-09-15T10:33:55.775Z,20.30
2022-09-15T10:37:55.619Z,20.60
2022-09-15T10:42:05.429Z,20.60
2022-09-15T10:45:49.856Z,20.50
2022-09-15T10:50:13.239Z,20.40
2022-09-15T10:54:07.140Z,20.50
2022-09-15T10:57:49.034Z,20.70
2022-09-15T11:01:30.767Z,20.90
2022-09-15T11:05:39.623Z,21.20
2022-09-15T11:09:34.524Z,21.40
2022-09-15T11:13:25.845Z,21.70
2022-09-15T11:17:19.405Z,21.70
2022-09-15T11:21:23.276Z,21.60
2022-09-15T11:25:24.325Z,21.30
2022-09-15T11:29:31.319Z,21.20
2022-09-15T11:33:25.548Z,21.20
2022-09-15T11:37:18.858Z,21.30
2022-09-15T11:41:12.408Z,21.30
2022-09-15T11:44:56.210Z,21.20
2022-09-15T11:48:42.777Z,21.10
2022-09-15T11:52:24.815Z,21.00
2022-09-15T11:56:26.596Z,21.00
2022-09-15T12:00:14.612Z,20.90
2022-09-15T12:04:01.890Z,20.80
2022-09-15T12:08:05.319Z,20.80
2022-09-15T12:11:51.555Z,21.00
2022-09-15T12:15:33.514Z,21.20
2022-09-15T12:19:21.544Z,21.20
2022-09-15T12:23:15.577Z,21.30
2022-09-15T12:27:00.980Z,21.40
2022-09-15T12:30:42.911Z,22.50
2022-09-15T12:35:02.808Z,22.90
2022-09-15T12:38:49.306Z,22.80
2022-09-15T12:42:32.296Z,23.10
2022-09-15T12:46:18.691Z,24.20
2022-09-15T12:50:22.893Z,24.70
2022-09-15T12:54:07.494Z,24.70
2022-09-15T12:58:00.234Z,24.90
2022-09-15T13:01:49.761Z,25.70
2022-09-15T13:05:46.109Z,26.40
2022-09-15T13:09:28.744Z,27.60
2022-09-15T13:13:18.703Z,28.60
2022-09-15T13:17:07.175Z,28.80
2022-09-15T13:21:02.923Z,29.30
2022-09-15T13:24:47.589Z,28.80
2022-09-15T13:28:29.673Z,27.90
2022-09-15T13:32:30.392Z,27.30
2022-09-15T13:36:27.916Z,26.90
2022-09-15T13:41:05.972Z,27.70
2022-09-15T13:44:59.123Z,29.30
2022-09-15T13:48:50.454Z,30.30
2022-09-15T13:52:55.286Z,30.90
2022-09-15T13:56:41.283Z,31.30
2022-09-15T14:00:29.868Z,30.70
2022-09-15T14:04:22.360Z,30.00
2022-09-15T14:08:09.492Z,29.30
2022-09-15T14:11:55.076Z,28.40
2022-09-15T14:15:37.160Z,27.70
2022-09-15T14:19:33.813Z,27.30
2022-09-15T14:23:17.059Z,26.80
2022-09-15T14:27:02.471Z,26.30
2022-09-15T14:30:47.811Z,25.80
2022-09-15T14:34:34.986Z,25.30
2022-09-15T14:38:24.701Z,24.90
2022-09-15T14:42:30.652Z,24.50
2022-09-15T14:46:14.752Z,24.30
2022-09-15T14:50:16.811Z,24.20
2022-09-15T14:54:00.723Z,24.20
2022-09-15T14:57:50.534Z,24.30
2022-09-15T15:01:39.980Z,24.10
2022-09-15T15:05:52.210Z,23.90
2022-09-15T15:09:50.187Z,23.70
2022-09-15T15:13:32.178Z,23.60
2022-09-15T15:17:34.667Z,23.60
2022-09-15T15:21:42.040Z,23.40
2022-09-15T15:25:32.323Z,23.20
2022-09-15T15:29:43.837Z,22.90
2022-09-15T15:33:28.053Z,23.10
2022-09-15T15:37:25.237Z,23.20
2022-09-15T15:41:08.448Z,23.40
2022-09-15T15:45:09.314Z,23.70
2022-09-15T15:48:52.308Z,23.80
2022-09-15T15:52:34.083Z,23.90
2022-09-15T15:56:24.842Z,23.80
2022-09-15T16:00:21.920Z,23.60
2022-09-15T16:04:04.077Z,23.30
2022-09-15T16:07:48.303Z,23.00
2022-09-15T16:11:30.169Z,22.80
2022-09-15T16:15:14.661Z,22.60
2022-09-15T16:18:56.436Z,22.40
2022-09-15T16:22:40.497Z,22.20
2022-09-15T16:26:24.596Z,22.10
2022-09-15T16:30:08.366Z,22.00
2022-09-15T16:33:50.262Z,21.90
2022-09-15T16:37:32.026Z,21.80
2022-09-15T16:41:19.283Z,21.70
2022-09-15T16:45:01.829Z,21.50
2022-09-15T16:48:44.368Z,21.50
2022-09-15T16:52:26.130Z,21.40
2022-09-15T16:56:11.464Z,21.40
2022-09-15T16:59:53.252Z,21.40
2022-09-15T17:03:35.032Z,21.30
2022-09-15T17:07:16.820Z,21.20
2022-09-15T17:11:03.438Z,21.10
2022-09-15T17:14:45.116Z,21.00
2022-09-15T17:18:27.960Z,20.90
2022-09-15T17:22:09.736Z,20.80
2022-09-15T17:25:53.335Z,20.80
2022-09-15T17:29:35.385Z,20.70
2022-09-15T17:33:18.847Z,20.60
2022-09-15T17:37:00.677Z,20.50
2022-09-15T17:40:43.146Z,20.40
2022-09-15T17:44:25.072Z,20.40
2022-09-15T17:48:07.249Z,20.30
2022-09-15T17:51:49.100Z,20.30
2022-09-15T17:55:33.499Z,20.20
2022-09-15T17:59:16.292Z,20.20
2022-09-15T18:03:01.503Z,20.10
2022-09-15T18:06:45.556Z,20.10
2022-09-15T18:10:28.287Z,20.00
2022-09-15T18:14:11.047Z,19.90
2022-09-15T18:17:55.047Z,19.70
2022-09-15T18:21:36.879Z,19.60
2022-09-15T18:25:25.708Z,19.50
2022-09-15T18:29:07.470Z,19.40
2022-09-15T18:32:49.643Z,19.20
2022-09-15T18:36:31.414Z,19.20
2022-09-15T18:40:15.838Z,19.10
2022-09-15T18:43:57.726Z,19.10
2022-09-15T18:47:40.957Z,19.00
2022-09-15T18:51:29.038Z,19.00
2022-09-15T18:55:19.089Z,18.90
2022-09-15T18:59:01.721Z,18.90
2022-09-15T19:02:43.776Z,18.90
2022-09-15T19:06:25.797Z,18.80
2022-09-15T19:10:08.991Z,18.70
2022-09-15T19:13:53.469Z,18.70
2022-09-15T19:17:35.407Z,18.60
2022-09-15T19:21:18.429Z,18.60
2022-09-15T19:25:00.271Z,18.50
2022-09-15T19:28:43.487Z,18.40
2022-09-15T19:32:25.615Z,18.40
2022-09-15T19:36:27.358Z,18.20
2022-09-15T19:40:12.964Z,18.20
2022-09-15T19:43:56.216Z,18.20
2022-09-15T19:47:39.187Z,18.10
2022-09-15T19:51:22.246Z,18.10
2022-09-15T19:55:06.774Z,18.10
2022-09-15T19:58:48.920Z,18.10
2022-09-15T20:02:30.685Z,18.10
2022-09-15T20:06:12.480Z,18.00
2022-09-15T20:09:54.333Z,18.00
2022-09-15T20:13:41.077Z,17.90
2022-09-15T20:17:22.816Z,17.80
2022-09-15T20:21:12.277Z,17.70
2022-09-15T20:24:59.761Z,17.60
2022-09-15T20:28:42.598Z,17.50
2022-09-15T20:32:28.451Z,17.30
2022-09-15T20:36:19.079Z,17.20
2022-09-15T20:40:01.040Z,17.00
2022-09-15T20:43:43.460Z,16.90
2022-09-15T20:47:25.309Z,16.80
2022-09-15T20:51:16.014Z,16.80
2022-09-15T20:54:57.810Z,16.60
2022-09-15T20:58:40.257Z,16.50
2022-09-15T21:02:22.094Z,16.40
2022-09-15T21:06:09.627Z,16.40
2022-09-15T21:09:51.398Z,16.30
2022-09-15T21:13:37.920Z,16.30
2022-09-15T21:17:19.908Z,16.40
2022-09-15T21:21:10.504Z,16.40
2022-09-15T21:24:52.305Z,16.40
2022-09-15T21:28:35.429Z,16.30
2022-09-15T21:32:17.419Z,16.30
2022-09-15T21:36:04.212Z,16.20
2022-09-15T21:39:46.125Z,16.20
2022-09-15T21:43:34.881Z,16.10
2022-09-15T21:47:16.712Z,16.10
2022-09-15T21:50:59.039Z,16.00
2022-09-15T21:54:40.820Z,16.00
2022-09-15T21:58:26.160Z,15.90
2022-09-15T22:02:08.194Z,15.80
2022-09-15T22:05:50.749Z,15.70
2022-09-15T22:09:32.872Z,15.60
2022-09-15T22:13:14.684Z,15.50
2022-09-15T22:16:56.472Z,15.50
2022-09-15T22:20:38.238Z,15.40
2022-09-15T22:24:20.048Z,15.30
2022-09-15T22:28:02.252Z,15.20
2022-09-15T22:31:44.193Z,15.20
2022-09-15T22:35:26.058Z,15.10
2022-09-15T22:39:11.542Z,15.00
2022-09-15T22:42:53.360Z,15.00
2022-09-15T22:46:35.285Z,14.90
2022-09-15T22:50:17.125Z,14.90
2022-09-15T22:54:02.200Z,14.80
2022-09-15T22:57:43.976Z,14.80
2022-09-15T23:01:29.640Z,14.70
2022-09-15T23:05:11.425Z,14.70
2022-09-15T23:08:55.237Z,14.60
2022-09-15T23:12:37.020Z,14.60
2022-09-15T23:16:18.888Z,14.50
2022-09-15T23:20:01.247Z,14.50
2022-09-15T23:23:46.991Z,14.40
2022-09-15T23:27:28.812Z,14.40
2022-09-15T23:31:12.388Z,14.30
2022-09-15T23:34:54.850Z,14.30
2022-09-15T23:38:38.794Z,14.20
2022-09-15T23:42:20.593Z,14.20
2022-09-15T23:46:03.902Z,14.20
2022-09-15T23:49:45.909Z,14.10
2022-09-15T23:53:28.568Z,14.10
2022-09-15T23:57:11.782Z,14.00
